Time;durP1;ratioP1;P1;durP2;ratioP2;P2;SDS_P1;SDS_P2;PMS_P1;PMS_P2;Temp;Humidity;BMP_temperature;BMP_pressure;BME280_temperature;BME280_humidity;BME280_pressure;Samples;Min_cycle;Max_cycle;Signal;HPM_P1;HPM_P2
2022/10/01 00:01:08;;;;;;;20.02;9.80;;;13.50;45.00;;;;;;5011629;28;20229;-43
2022/10/01 00:03:35;;;;;;;15.15;9.73;;;13.50;44.90;;;;;;5011626;28;20191;-43
2022/10/01 00:06:04;;;;;;;12.65;9.18;;;13.50;45.00;;;;;;5011321;28;20186;-43
2022/10/01 00:08:31;;;;;;;15.30;9.05;;;13.50;45.00;;;;;;5011579;28;20689;-43
2022/10/01 00:11:00;;;;;;;8.52;7.72;;;13.50;45.00;;;;;;5013467;28;20631;-43
2022/10/01 00:13:27;;;;;;;12.30;9.02;;;13.40;45.00;;;;;;5015167;28;20185;-43
2022/10/01 00:15:52;;;;;;;10.65;7.95;;;13.40;45.10;;;;;;5014554;28;20190;-43
2022/10/01 00:18:18;;;;;;;9.00;8.07;;;13.40;45.20;;;;;;5014755;28;20260;-43
2022/10/01 00:20:44;;;;;;;10.30;8.70;;;13.40;45.20;;;;;;5014986;28;20213;-43
2022/10/01 00:23:11;;;;;;;8.67;7.77;;;13.40;45.20;;;;;;5015211;28;20174;-43
2022/10/01 00:25:37;;;;;;;12.80;8.25;;;13.30;45.20;;;;;;5014343;28;20699;-43
2022/10/01 00:28:03;;;;;;;7.90;7.15;;;13.30;45.20;;;;;;5014736;28;20297;-43
2022/10/01 00:30:30;;;;;;;6.75;6.15;;;13.40;45.20;;;;;;5014734;28;20170;-43
2022/10/01 00:32:55;;;;;;;8.13;6.88;;;13.30;45.20;;;;;;5014782;28;20186;-43
2022/10/01 00:35:22;;;;;;;8.73;7.30;;;13.30;45.40;;;;;;5014505;28;20191;-42
2022/10/01 00:37:50;;;;;;;8.52;6.85;;;13.30;45.50;;;;;;5014466;28;20198;-43
2022/10/01 00:40:18;;;;;;;11.90;7.50;;;13.30;45.50;;;;;;5014635;28;20254;-43
2022/10/01 00:42:44;;;;;;;11.13;7.18;;;13.30;45.60;;;;;;5014416;28;20707;-43
2022/10/01 00:45:12;;;;;;;8.75;7.43;;;13.30;45.70;;;;;;5014771;28;20183;-42
2022/10/01 00:47:43;;;;;;;10.25;7.57;;;13.30;45.70;;;;;;5013911;28;20272;-43
2022/10/01 00:50:17;;;;;;;7.63;6.00;;;13.30;45.70;;;;;;5014392;28;20720;-43
2022/10/01 00:52:48;;;;;;;6.53;5.90;;;13.30;45.70;;;;;;5014603;28;20178;-42
2022/10/01 00:55:32;;;;;;;9.60;7.43;;;13.30;45.80;;;;;;5014341;28;20179;-43
2022/10/01 00:57:59;;;;;;;7.95;7.03;;;13.30;45.60;;;;;;5014230;28;20273;-42
2022/10/01 01:00:25;;;;;;;9.27;7.30;;;13.20;45.60;;;;;;5014109;28;20540;-42
2022/10/01 01:02:51;;;;;;;7.93;6.82;;;13.20;45.60;;;;;;5014249;28;20297;-43
2022/10/01 01:05:17;;;;;;;9.33;6.70;;;13.20;45.60;;;;;;5014420;28;20627;-43
2022/10/01 01:07:49;;;;;;;11.68;7.13;;;13.20;45.60;;;;;;5013548;28;20492;-42
2022/10/01 01:10:21;;;;;;;8.20;6.95;;;13.20;45.60;;;;;;5014111;28;20249;-42
2022/10/01 01:12:56;;;;;;;7.75;6.85;;;13.20;45.60;;;;;;5013947;28;20546;-43
2022/10/01 01:15:38;;;;;;;7.07;5.95;;;13.20;45.70;;;;;;5013970;28;20229;-43
2022/10/01 01:18:14;;;;;;;9.68;6.65;;;13.10;45.60;;;;;;5013839;28;20237;-42
2022/10/01 01:21:21;;;;;;;8.35;6.65;;;13.10;45.50;;;;;;5013849;28;20651;-42
2022/10/01 01:23:56;;;;;;;8.02;6.88;;;13.10;45.40;;;;;;5003207;28;20194;-43
2022/10/01 01:26:24;;;;;;;8.75;6.80;;;13.10;45.60;;;;;;5013291;28;20174;-43
2022/10/01 01:28:56;;;;;;;7.78;6.97;;;13.00;45.40;;;;;;5013658;28;20194;-43
2022/10/01 01:31:28;;;;;;;8.70;6.20;;;12.90;45.40;;;;;;5013582;28;20198;-43
2022/10/01 01:33:55;;;;;;;7.63;6.28;;;13.00;45.40;;;;;;5013907;28;20163;-43
2022/10/01 01:36:36;;;;;;;10.60;7.93;;;12.90;45.20;;;;;;5013281;28;20309;-43
2022/10/01 01:39:07;;;;;;;8.95;7.60;;;12.90;45.10;;;;;;5013454;28;20280;-43
2022/10/01 01:41:37;;;;;;;7.88;6.97;;;12.80;45.30;;;;;;5013456;28;20295;-43
2022/10/01 01:44:08;;;;;;;8.00;7.18;;;12.70;45.30;;;;;;5013361;28;20167;-43
2022/10/01 01:46:38;;;;;;;10.00;6.80;;;12.70;45.40;;;;;;5013172;28;20155;-43
2022/10/01 01:49:04;;;;;;;9.55;7.70;;;12.70;45.40;;;;;;5013335;28;20209;-43
2022/10/01 01:51:34;;;;;;;9.03;7.43;;;12.60;45.20;;;;;;5013306;28;20167;-43
2022/10/01 01:54:00;;;;;;;10.52;7.30;;;12.60;45.20;;;;;;5013282;28;20414;-43
2022/10/01 01:56:26;;;;;;;8.82;7.90;;;12.60;45.20;;;;;;5012672;28;20186;-43
2022/10/01 01:58:56;;;;;;;10.38;6.95;;;12.50;45.30;;;;;;5013380;28;20194;-43
2022/10/01 02:01:37;;;;;;;9.43;6.97;;;12.50;45.40;;;;;;5012983;28;20206;-43
2022/10/01 02:04:13;;;;;;;8.20;6.25;;;12.50;45.10;;;;;;5013296;28;20179;-43
2022/10/01 02:07:06;;;;;;;8.43;6.82;;;12.40;45.00;;;;;;5012577;28;20173;-43
2022/10/01 02:09:56;;;;;;;10.13;7.05;;;12.50;45.00;;;;;;5012849;28;20194;-42
2022/10/01 02:12:36;;;;;;;8.52;6.50;;;12.40;44.90;;;;;;4998907;28;20202;-42
2022/10/01 02:15:27;;;;;;;6.75;5.88;;;12.30;45.10;;;;;;5012929;28;20216;-42
2022/10/01 02:18:03;;;;;;;7.70;5.78;;;12.30;45.20;;;;;;5008223;28;20217;-42
2022/10/01 02:20:38;;;;;;;7.65;5.75;;;12.30;45.30;;;;;;5012874;28;20151;-42
2022/10/01 02:23:24;;;;;;;7.63;6.32;;;12.30;45.20;;;;;;5012844;28;20190;-41
2022/10/01 02:25:58;;;;;;;8.23;7.38;;;12.20;44.90;;;;;;5012297;28;20266;-42
2022/10/01 02:28:24;;;;;;;10.10;6.53;;;12.20;45.00;;;;;;5012973;28;20198;-42
2022/10/01 02:30:53;;;;;;;6.13;5.43;;;12.10;45.00;;;;;;5012652;28;20297;-43
2022/10/01 02:33:26;;;;;;;7.80;6.47;;;12.10;44.90;;;;;;5012033;28;20170;-42
2022/10/01 02:35:53;;;;;;;7.55;6.63;;;12.10;44.90;;;;;;5011849;28;20181;-42
2022/10/01 02:38:22;;;;;;;7.25;6.43;;;12.00;44.90;;;;;;5012524;28;20186;-42
2022/10/01 02:40:51;;;;;;;8.85;7.05;;;12.00;45.10;;;;;;5012376;28;20182;-42
2022/10/01 02:43:22;;;;;;;9.98;6.78;;;12.00;45.00;;;;;;5012628;28;20194;-42
2022/10/01 02:45:56;;;;;;;8.35;6.95;;;12.00;45.10;;;;;;5012254;28;20217;-42
2022/10/01 02:48:22;;;;;;;10.90;6.82;;;11.90;45.00;;;;;;5012388;28;20199;-42
2022/10/01 02:50:52;;;;;;;6.30;5.40;;;11.90;45.10;;;;;;5012327;28;20178;-42
2022/10/01 02:53:31;;;;;;;9.13;6.88;;;11.90;45.10;;;;;;5012349;28;20229;-42
2022/10/01 02:55:58;;;;;;;10.70;7.03;;;11.90;44.90;;;;;;5011834;28;20178;-42
2022/10/01 02:58:24;;;;;;;6.95;5.72;;;11.80;45.10;;;;;;5012270;28;20194;-43
2022/10/01 03:00:50;;;;;;;6.03;5.43;;;11.80;45.00;;;;;;5012143;28;20174;-42
2022/10/01 03:03:15;;;;;;;8.40;6.40;;;11.80;44.90;;;;;;5012145;28;20406;-42
2022/10/01 03:05:41;;;;;;;11.53;6.43;;;11.80;44.80;;;;;;5011727;28;20402;-42
2022/10/01 03:08:07;;;;;;;6.33;5.30;;;11.70;44.80;;;;;;5011823;28;20233;-43
2022/10/01 03:10:33;;;;;;;6.67;5.60;;;11.70;45.00;;;;;;5012272;28;20175;-43
2022/10/01 03:13:00;;;;;;;7.00;5.32;;;11.70;45.00;;;;;;5012231;28;20179;-43
2022/10/01 03:15:26;;;;;;;8.10;7.30;;;11.70;45.10;;;;;;5012011;28;20658;-43
2022/10/01 03:17:53;;;;;;;6.90;5.40;;;11.70;45.30;;;;;;5011355;28;20756;-43
2022/10/01 03:20:19;;;;;;;9.00;8.02;;;11.70;45.30;;;;;;5012293;28;20186;-42
2022/10/01 03:22:46;;;;;;;7.00;5.88;;;11.70;45.30;;;;;;5012063;28;20210;-42
2022/10/01 03:25:13;;;;;;;6.88;6.05;;;11.70;45.50;;;;;;5012010;28;20183;-43
2022/10/01 03:27:39;;;;;;;8.65;6.00;;;11.80;45.40;;;;;;5011529;28;20167;-42
2022/10/01 03:30:05;;;;;;;8.63;5.80;;;11.70;45.30;;;;;;5011946;28;20183;-42
2022/10/01 03:32:31;;;;;;;9.05;5.88;;;11.70;45.20;;;;;;5012165;28;20178;-42
2022/10/01 03:34:57;;;;;;;9.27;7.32;;;11.60;45.10;;;;;;5012148;28;20181;-43
2022/10/01 03:37:23;;;;;;;8.45;6.30;;;11.60;45.20;;;;;;5011475;28;20194;-43
2022/10/01 03:39:49;;;;;;;7.20;5.72;;;11.60;45.20;;;;;;5012130;28;20202;-42
2022/10/01 03:42:15;;;;;;;9.63;7.23;;;11.60;45.20;;;;;;5011829;28;20213;-42
2022/10/01 03:44:41;;;;;;;7.43;6.17;;;11.60;45.20;;;;;;5012124;28;20467;-42
2022/10/01 03:47:08;;;;;;;10.30;7.10;;;11.60;45.40;;;;;;5015060;28;20404;-42
2022/10/01 03:49:34;;;;;;;7.50;6.30;;;11.60;45.40;;;;;;5015546;28;20201;-41
2022/10/01 03:52:01;;;;;;;7.60;6.27;;;11.60;45.20;;;;;;5015827;28;20178;-42
2022/10/01 03:54:29;;;;;;;12.23;7.00;;;11.50;45.20;;;;;;5015748;28;20409;-42
2022/10/01 03:56:54;;;;;;;8.45;6.20;;;11.60;45.10;;;;;;4997416;28;20546;-42
2022/10/01 03:59:20;;;;;;;7.43;6.23;;;11.50;45.10;;;;;;5015230;28;20197;-42
2022/10/01 04:01:46;;;;;;;7.00;6.30;;;11.50;45.20;;;;;;5015281;28;20228;-42
2022/10/01 04:04:12;;;;;;;7.25;5.70;;;11.50;45.40;;;;;;5015341;28;20166;-43
2022/10/01 04:06:38;;;;;;;8.13;5.60;;;11.50;45.60;;;;;;5014689;28;20583;-43
2022/10/01 04:09:04;;;;;;;6.90;6.20;;;11.50;45.60;;;;;;5015193;28;20265;-42
2022/10/01 04:11:29;;;;;;;12.00;7.22;;;11.50;45.50;;;;;;5015113;28;20170;-42
2022/10/01 04:13:56;;;;;;;8.50;6.60;;;11.50;45.50;;;;;;5015170;28;20228;-42
2022/10/01 04:16:23;;;;;;;12.75;8.07;;;11.50;45.40;;;;;;5014402;28;20182;-42
2022/10/01 04:18:49;;;;;;;7.68;6.60;;;11.50;45.50;;;;;;5014791;28;20222;-41
2022/10/01 04:21:15;;;;;;;10.23;6.88;;;11.40;45.50;;;;;;5014950;28;20705;-42
2022/10/01 04:23:41;;;;;;;7.47;6.67;;;11.40;45.40;;;;;;5014994;28;20179;-42
2022/10/01 04:26:07;;;;;;;9.37;6.20;;;11.30;45.70;;;;;;5014665;28;20414;-41
2022/10/01 04:28:33;;;;;;;10.57;7.90;;;11.40;45.80;;;;;;5014782;28;20594;-41
2022/10/01 04:33:44;;;;;;;6.85;5.97;;;11.30;45.80;;;;;;5015158;28;20174;-42
2022/10/01 04:36:10;;;;;;;8.52;6.60;;;11.40;45.80;;;;;;5014259;28;20171;-42
2022/10/01 04:38:36;;;;;;;8.95;7.90;;;11.40;45.90;;;;;;5014562;28;20671;-42
2022/10/01 04:41:01;;;;;;;8.87;7.97;;;11.40;46.10;;;;;;5014495;28;20181;-42
2022/10/01 04:43:27;;;;;;;7.57;6.77;;;11.50;46.30;;;;;;5014651;28;20618;-42
2022/10/01 04:45:53;;;;;;;10.27;7.60;;;11.50;46.20;;;;;;5014203;28;20410;-42
2022/10/01 04:48:19;;;;;;;9.50;7.10;;;11.50;46.10;;;;;;5014693;28;20193;-42
2022/10/01 04:50:44;;;;;;;7.80;7.00;;;11.50;46.10;;;;;;5014733;28;20626;-42
2022/10/01 04:53:10;;;;;;;9.37;7.87;;;11.50;46.30;;;;;;5014501;28;20181;-41
2022/10/01 04:55:36;;;;;;;8.13;7.37;;;11.40;46.20;;;;;;5013822;28;20639;-43
2022/10/01 04:58:02;;;;;;;8.65;7.00;;;11.40;46.10;;;;;;5013337;28;20201;-42
2022/10/01 05:00:29;;;;;;;10.87;8.00;;;11.50;46.20;;;;;;5014428;28;20639;-43
2022/10/01 05:02:55;;;;;;;8.90;6.80;;;11.50;46.50;;;;;;5014217;28;20453;-42
2022/10/01 05:05:22;;;;;;;7.47;6.10;;;11.50;46.40;;;;;;5014213;28;20181;-42
2022/10/01 05:07:49;;;;;;;9.70;7.13;;;11.50;46.40;;;;;;5013484;28;20201;-42
2022/10/01 05:10:18;;;;;;;8.50;6.95;;;11.60;46.40;;;;;;5014234;28;20174;-42
2022/10/01 05:12:45;;;;;;;16.20;8.98;;;11.50;46.30;;;;;;5014210;28;20181;-43
2022/10/01 05:15:11;;;;;;;8.70;7.60;;;11.50;46.40;;;;;;5014074;28;20266;-42
2022/10/01 05:17:37;;;;;;;9.38;6.90;;;11.60;46.40;;;;;;5013286;28;20223;-42
2022/10/01 05:20:04;;;;;;;11.30;7.57;;;11.60;46.60;;;;;;5014197;28;20652;-43
2022/10/01 05:22:30;;;;;;;11.25;6.88;;;11.60;46.60;;;;;;5013763;28;20186;-42
2022/10/01 05:24:59;;;;;;;12.52;7.88;;;11.60;46.60;;;;;;5014112;28;20175;-42
2022/10/01 05:27:26;;;;;;;9.48;7.97;;;11.60;46.80;;;;;;5013164;28;20555;-43
2022/10/01 05:29:52;;;;;;;10.85;9.07;;;11.70;46.90;;;;;;5013551;28;20623;-43
2022/10/01 05:32:18;;;;;;;7.32;6.55;;;11.70;46.90;;;;;;5013696;28;20571;-42
2022/10/01 05:34:44;;;;;;;8.80;7.67;;;11.80;46.90;;;;;;5013615;28;20182;-42
2022/10/01 05:37:10;;;;;;;9.57;7.53;;;11.80;47.10;;;;;;5013026;28;20410;-42
2022/10/01 05:39:37;;;;;;;8.32;7.55;;;11.80;47.10;;;;;;5013362;28;20437;-42
2022/10/01 05:42:03;;;;;;;11.98;8.07;;;11.90;47.10;;;;;;5013602;28;20602;-43
2022/10/01 05:44:30;;;;;;;9.50;8.15;;;11.90;47.10;;;;;;5013642;28;20193;-42
2022/10/01 05:46:56;;;;;;;9.00;7.68;;;12.00;47.20;;;;;;5012885;28;20178;-43
2022/10/01 05:49:24;;;;;;;13.23;9.37;;;12.10;47.30;;;;;;5013273;28;20594;-43
2022/10/01 05:51:49;;;;;;;10.98;8.95;;;12.10;47.30;;;;;;5013612;28;20266;-42
2022/10/01 05:54:18;;;;;;;11.00;9.07;;;12.20;47.40;;;;;;5013442;28;20265;-42
2022/10/01 05:56:44;;;;;;;13.27;10.07;;;12.30;47.60;;;;;;5012779;28;20193;-42
2022/10/01 05:59:10;;;;;;;11.25;9.73;;;12.40;48.00;;;;;;5013330;28;20206;-42
2022/10/01 06:01:36;;;;;;;11.80;10.05;;;12.50;47.90;;;;;;5013333;28;20281;-43
2022/10/01 06:04:02;;;;;;;12.05;8.95;;;12.50;48.00;;;;;;5013066;28;20619;-43
2022/10/01 06:06:28;;;;;;;13.20;9.73;;;12.60;48.10;;;;;;5012380;28;20178;-42
2022/10/01 06:08:54;;;;;;;9.93;8.93;;;12.70;48.10;;;;;;5012807;28;20755;-42
2022/10/01 06:11:21;;;;;;;11.80;9.57;;;12.70;48.00;;;;;;5013252;28;20255;-42
2022/10/01 06:13:48;;;;;;;12.38;9.38;;;12.80;48.00;;;;;;5012862;28;20217;-41
2022/10/01 06:16:14;;;;;;;19.80;16.10;;;12.80;48.00;;;;;;5012454;28;20317;-43
2022/10/01 06:18:40;;;;;;;13.63;11.80;;;12.90;48.10;;;;;;5012728;28;20686;-43
2022/10/01 06:21:07;;;;;;;10.85;8.98;;;12.80;48.10;;;;;;5012729;28;20178;-42
2022/10/01 06:23:33;;;;;;;9.85;8.40;;;13.00;48.10;;;;;;5013082;28;20639;-42
2022/10/01 06:26:01;;;;;;;14.70;11.05;;;13.00;48.20;;;;;;5012155;28;20717;-43
2022/10/01 06:28:27;;;;;;;13.15;10.25;;;13.10;48.30;;;;;;5012631;28;20276;-42
2022/10/01 06:30:52;;;;;;;12.53;11.13;;;13.20;48.30;;;;;;5012566;28;20213;-42
2022/10/01 06:33:18;;;;;;;10.00;9.00;;;13.20;48.20;;;;;;5012641;28;20409;-42
2022/10/01 06:35:47;;;;;;;13.23;10.48;;;13.30;48.30;;;;;;5012055;28;20508;-41
2022/10/01 06:38:14;;;;;;;14.35;11.55;;;13.30;48.50;;;;;;5012740;28;20226;-42
2022/10/01 06:40:40;;;;;;;15.02;11.55;;;13.40;48.40;;;;;;5012714;28;20253;-42
2022/10/01 06:43:07;;;;;;;11.63;10.07;;;13.50;48.60;;;;;;5012324;28;20210;-43
2022/10/01 06:45:37;;;;;;;11.07;9.55;;;13.50;48.60;;;;;;4994383;28;20189;-43
2022/10/01 06:48:03;;;;;;;13.75;10.75;;;13.60;48.60;;;;;;5012630;28;20187;-43
2022/10/01 06:50:30;;;;;;;13.23;11.07;;;13.60;48.60;;;;;;5012586;28;20171;-43
2022/10/01 06:52:57;;;;;;;11.55;8.90;;;13.70;48.60;;;;;;5012649;28;20244;-43
2022/10/01 06:55:28;;;;;;;15.52;11.05;;;13.80;48.70;;;;;;5012217;28;20639;-43
2022/10/01 06:57:59;;;;;;;14.93;11.82;;;13.90;48.70;;;;;;5011811;28;20663;-43
2022/10/01 07:00:27;;;;;;;13.43;11.35;;;14.00;48.70;;;;;;5012423;28;20171;-42
2022/10/01 07:02:54;;;;;;;14.73;11.65;;;14.00;48.70;;;;;;5012288;28;20206;-43
2022/10/01 07:05:21;;;;;;;13.40;11.93;;;14.00;48.70;;;;;;5012188;28;20663;-42
2022/10/01 07:07:47;;;;;;;20.02;11.50;;;14.10;48.90;;;;;;5011575;28;20543;-42
2022/10/01 07:10:14;;;;;;;13.48;10.82;;;14.20;48.80;;;;;;5012151;28;20183;-42
2022/10/01 07:12:40;;;;;;;17.30;12.57;;;14.30;49.00;;;;;;5012278;28;20314;-43
2022/10/01 07:15:07;;;;;;;14.43;10.80;;;14.30;48.90;;;;;;5011956;28;20265;-43
2022/10/01 07:17:41;;;;;;;19.08;12.73;;;14.30;49.10;;;;;;5011636;28;20410;-43
2022/10/01 07:20:07;;;;;;;18.70;12.55;;;14.40;49.20;;;;;;5013182;28;20175;-42
2022/10/01 07:22:33;;;;;;;11.15;9.95;;;14.50;49.10;;;;;;5016008;28;20197;-42
2022/10/01 07:24:58;;;;;;;10.60;9.40;;;14.50;49.00;;;;;;5015994;28;20178;-42
2022/10/01 07:27:24;;;;;;;12.00;9.60;;;14.50;49.00;;;;;;5015691;28;20202;-43
2022/10/01 07:29:51;;;;;;;13.13;9.73;;;14.60;48.80;;;;;;5015785;28;20194;-43
2022/10/01 07:32:17;;;;;;;12.18;9.23;;;14.70;49.00;;;;;;5015877;28;20178;-43
2022/10/01 07:34:43;;;;;;;12.53;10.67;;;14.60;48.90;;;;;;5015880;28;20254;-42
2022/10/01 07:37:09;;;;;;;11.23;8.60;;;14.70;49.10;;;;;;5015311;28;20894;-43
2022/10/01 07:39:36;;;;;;;12.48;10.02;;;14.70;49.20;;;;;;5015658;28;20199;-42
2022/10/01 07:42:02;;;;;;;10.98;9.20;;;14.80;49.00;;;;;;5015552;28;20289;-43
2022/10/01 07:44:28;;;;;;;11.23;10.02;;;14.80;48.90;;;;;;5015782;28;20174;-43
2022/10/01 07:46:55;;;;;;;9.65;8.48;;;14.40;48.80;;;;;;5015036;28;20705;-40
2022/10/01 07:49:22;;;;;;;10.35;9.00;;;14.90;49.00;;;;;;5015465;28;20198;-41
2022/10/01 07:51:48;;;;;;;11.35;9.95;;;14.90;48.90;;;;;;5015437;28;20647;-40
2022/10/01 07:54:15;;;;;;;12.07;10.87;;;15.00;48.90;;;;;;5015476;28;20182;-40
2022/10/01 07:56:40;;;;;;;12.73;9.80;;;15.00;48.80;;;;;;5014813;28;20413;-41
2022/10/01 07:59:08;;;;;;;11.77;9.10;;;15.10;48.90;;;;;;5015301;28;20341;-40
2022/10/01 08:01:34;;;;;;;13.68;9.77;;;15.20;49.00;;;;;;5015204;28;20239;-42
2022/10/01 08:05:16;;;;;;;10.37;8.50;;;15.30;48.80;;;;;;5015279;28;20211;-43
2022/10/01 08:06:47;;;;;;;14.98;9.45;;;15.30;48.70;;;;;;5014565;28;20414;-42
2022/10/01 08:09:13;;;;;;;10.23;8.65;;;15.40;48.70;;;;;;5014975;28;20605;-43
2022/10/01 08:11:39;;;;;;;12.02;8.25;;;15.40;48.70;;;;;;5015413;28;20213;-42
2022/10/01 08:14:05;;;;;;;10.23;8.47;;;15.60;48.80;;;;;;5015258;28;20670;-42
2022/10/01 08:16:33;;;;;;;9.60;8.50;;;15.60;48.50;;;;;;5014750;28;20985;-43
2022/10/01 08:18:59;;;;;;;10.82;8.23;;;15.70;48.70;;;;;;5014889;28;20543;-43
2022/10/01 08:21:27;;;;;;;10.68;7.95;;;15.80;48.40;;;;;;5014853;28;20291;-42
2022/10/01 08:23:53;;;;;;;10.27;7.93;;;15.90;48.50;;;;;;5014852;28;20190;-42
2022/10/01 08:26:19;;;;;;;9.13;7.45;;;15.90;48.50;;;;;;5014416;28;20281;-43
2022/10/01 08:28:44;;;;;;;10.43;8.27;;;16.00;48.40;;;;;;5014844;28;20277;-43
2022/10/01 08:31:10;;;;;;;10.33;7.77;;;16.00;48.30;;;;;;5014932;28;20179;-43
2022/10/01 08:33:37;;;;;;;9.93;7.10;;;16.10;48.20;;;;;;5014742;28;20250;-43
2022/10/01 08:36:08;;;;;;;14.55;8.20;;;16.10;48.10;;;;;;5014250;28;20195;-43
2022/10/01 08:38:34;;;;;;;10.50;7.22;;;16.10;47.80;;;;;;5014470;28;20221;-43
2022/10/01 08:41:17;;;;;;;9.10;7.25;;;16.20;47.80;;;;;;5014531;28;20167;-43
2022/10/01 08:43:43;;;;;;;8.35;7.03;;;16.20;47.60;;;;;;5014546;28;20151;-40
2022/10/01 08:46:18;;;;;;;9.75;7.38;;;16.20;47.60;;;;;;5014219;28;20166;-40
2022/10/01 08:49:00;;;;;;;8.13;6.70;;;16.30;47.40;;;;;;5014296;28;20551;-40
2022/10/01 08:51:31;;;;;;;8.52;7.60;;;16.40;47.30;;;;;;5014462;28;20239;-40
2022/10/01 08:54:15;;;;;;;10.07;6.00;;;16.40;47.00;;;;;;5014466;28;20183;-41
2022/10/01 08:56:45;;;;;;;7.78;6.30;;;16.40;46.90;;;;;;5014340;28;20197;-40
2022/10/01 08:59:42;;;;;;;8.15;6.20;;;16.40;46.50;;;;;;5015335;28;20190;-41
2022/10/01 09:02:22;;;;;;;9.00;7.30;;;16.50;46.90;;;;;;5014213;28;20203;-41
2022/10/01 09:04:55;;;;;;;8.93;7.18;;;16.50;46.90;;;;;;5014320;28;20175;-43
2022/10/01 09:07:45;;;;;;;10.48;6.70;;;16.60;46.50;;;;;;5013609;28;20181;-41
2022/10/01 09:10:45;;;;;;;7.22;6.50;;;16.70;46.30;;;;;;5014134;28;20620;-41
2022/10/01 09:13:38;;;;;;;10.30;9.15;;;16.80;45.90;;;;;;5014045;28;20263;-41
2022/10/01 09:16:10;;;;;;;7.25;6.30;;;16.90;46.00;;;;;;5013334;28;20187;-41
2022/10/01 09:18:41;;;;;;;8.75;7.15;;;16.90;43.70;;;;;;5013932;28;20210;-40
2022/10/01 09:21:19;;;;;;;10.07;6.78;;;16.90;45.40;;;;;;5013692;28;20183;-41
2022/10/01 09:24:16;;;;;;;9.25;6.68;;;17.00;45.40;;;;;;5013856;28;20313;-41
2022/10/01 09:26:50;;;;;;;9.35;6.60;;;17.00;44.70;;;;;;5012143;28;20183;-41
2022/10/01 09:29:28;;;;;;;9.80;6.75;;;17.00;44.70;;;;;;5013707;28;20675;-41
2022/10/01 09:31:57;;;;;;;7.03;6.15;;;17.00;44.10;;;;;;5013680;28;20175;-40
2022/10/01 09:34:42;;;;;;;7.93;6.78;;;17.00;44.30;;;;;;4996139;28;20639;-42
2022/10/01 09:37:47;;;;;;;9.25;7.00;;;17.10;44.70;;;;;;5013203;28;20181;-43
2022/10/01 09:40:33;;;;;;;7.65;6.85;;;17.10;44.50;;;;;;5012835;28;20773;-41
2022/10/01 09:43:00;;;;;;;10.00;5.72;;;17.00;44.10;;;;;;5012932;28;20757;-41
2022/10/01 09:45:25;;;;;;;8.60;5.90;;;16.90;43.40;;;;;;5013566;28;20200;-41
2022/10/01 09:47:56;;;;;;;7.57;5.90;;;17.00;43.50;;;;;;5013015;28;20228;-41
2022/10/01 09:50:38;;;;;;;6.60;4.95;;;17.10;43.90;;;;;;5013507;28;20181;-41
2022/10/01 09:53:09;;;;;;;5.90;5.30;;;17.20;43.40;;;;;;5013506;28;20171;-41
2022/10/01 09:55:44;;;;;;;4.53;4.00;;;17.20;42.80;;;;;;5012723;28;20189;-41
2022/10/01 09:58:18;;;;;;;4.43;3.55;;;17.10;42.00;;;;;;5013311;28;20298;-41
2022/10/01 10:00:44;;;;;;;4.55;4.10;;;17.00;40.60;;;;;;5011832;28;20224;-41
2022/10/01 10:03:21;;;;;;;5.30;3.80;;;17.10;41.00;;;;;;5012928;28;20206;-41
2022/10/01 10:05:48;;;;;;;4.00;3.60;;;17.30;40.20;;;;;;5012470;28;20181;-41
2022/10/01 10:08:29;;;;;;;4.25;3.42;;;17.20;38.90;;;;;;5012928;28;20194;-41
2022/10/01 10:11:07;;;;;;;4.03;3.40;;;17.10;39.40;;;;;;5013114;28;20171;-40
2022/10/01 10:13:39;;;;;;;5.25;3.60;;;17.20;38.80;;;;;;5012980;28;20173;-41
2022/10/01 10:16:25;;;;;;;4.10;3.60;;;17.20;38.90;;;;;;5012516;28;20203;-42
2022/10/01 10:19:02;;;;;;;5.90;4.13;;;17.20;38.50;;;;;;5012738;28;20570;-42
2022/10/01 10:21:33;;;;;;;4.15;3.05;;;17.30;39.30;;;;;;5012723;28;20202;-41
2022/10/01 10:24:25;;;;;;;5.97;3.95;;;17.40;39.50;;;;;;5013035;28;20175;-42
2022/10/01 10:26:54;;;;;;;6.80;3.65;;;17.40;38.30;;;;;;5012296;28;20543;-41
2022/10/01 10:29:30;;;;;;;4.07;3.50;;;17.40;39.20;;;;;;5012846;28;20570;-42
2022/10/01 10:31:57;;;;;;;8.00;4.32;;;17.50;38.50;;;;;;5012714;28;20523;-42
2022/10/01 10:34:33;;;;;;;4.13;3.70;;;17.50;38.90;;;;;;5012711;28;20204;-41
2022/10/01 10:37:04;;;;;;;6.75;4.30;;;17.50;39.10;;;;;;5012195;28;20593;-42
2022/10/01 10:39:36;;;;;;;5.40;3.63;;;17.50;39.00;;;;;;5012676;28;20201;-42
2022/10/01 10:42:04;;;;;;;5.80;2.78;;;17.50;38.50;;;;;;4979199;28;20206;-40
2022/10/01 10:44:35;;;;;;;5.15;4.20;;;17.50;39.40;;;;;;5012654;28;20166;-41
2022/10/01 10:47:04;;;;;;;5.07;4.38;;;17.50;39.60;;;;;;5011945;28;20207;-42
2022/10/01 10:49:32;;;;;;;4.75;3.67;;;17.40;39.60;;;;;;5012381;28;20186;-42
2022/10/01 10:52:00;;;;;;;4.50;3.60;;;17.30;39.10;;;;;;5012317;28;20177;-41
2022/10/01 10:54:37;;;;;;;4.35;3.67;;;17.30;40.90;;;;;;5011595;28;20669;-42
2022/10/01 10:57:15;;;;;;;9.43;4.25;;;17.30;41.80;;;;;;5011802;28;20171;-41
2022/10/01 10:59:41;;;;;;;6.18;3.20;;;17.20;41.80;;;;;;5012076;28;20202;-42
2022/10/01 11:02:16;;;;;;;7.60;4.60;;;17.20;42.20;;;;;;5012427;28;20203;-41
2022/10/01 11:04:44;;;;;;;8.23;4.10;;;17.20;42.50;;;;;;5010919;28;20892;-41
2022/10/01 11:07:12;;;;;;;8.10;5.28;;;17.20;43.40;;;;;;5011545;28;20187;-41
2022/10/01 11:09:49;;;;;;;8.13;4.65;;;17.10;43.60;;;;;;5011139;28;20195;-41
2022/10/01 11:12:19;;;;;;;7.30;4.28;;;17.10;43.70;;;;;;5012572;28;20200;-42
2022/10/01 11:15:10;;;;;;;6.43;4.45;;;17.00;43.90;;;;;;5012459;28;20178;-42
2022/10/01 11:17:50;;;;;;;3.95;3.25;;;17.00;44.60;;;;;;5011441;28;20196;-41
2022/10/01 11:20:32;;;;;;;3.97;3.58;;;17.00;45.00;;;;;;5012257;28;20182;-41
2022/10/01 11:23:10;;;;;;;7.22;3.95;;;17.00;45.00;;;;;;5012091;28;20206;-41
2022/10/01 11:25:49;;;;;;;7.40;5.38;;;16.90;45.20;;;;;;5011544;28;20162;-42
2022/10/01 11:28:33;;;;;;;4.97;4.05;;;16.90;45.10;;;;;;5011982;28;20191;-41
2022/10/01 11:31:57;;;;;;;4.53;3.65;;;16.90;45.70;;;;;;5012085;28;20182;-41
2022/10/01 11:35:00;;;;;;;5.15;4.40;;;16.80;46.40;;;;;;4932190;29;20174;-41
2022/10/01 11:37:29;;;;;;;5.25;4.75;;;16.80;46.40;;;;;;5011304;28;20178;-41
2022/10/01 11:39:57;;;;;;;7.28;5.15;;;16.80;46.40;;;;;;4994473;28;20174;-42
2022/10/01 11:42:33;;;;;;;5.45;4.40;;;16.80;46.90;;;;;;5012102;28;20202;-41
2022/10/01 11:45:16;;;;;;;6.85;5.03;;;16.90;46.80;;;;;;5012091;28;20186;-42
2022/10/01 11:47:49;;;;;;;4.40;3.90;;;16.90;46.60;;;;;;5011403;28;20189;-40
2022/10/01 11:50:26;;;;;;;4.70;4.30;;;16.80;46.60;;;;;;5012705;28;20566;-41
2022/10/01 11:53:02;;;;;;;6.65;4.63;;;16.80;46.80;;;;;;5012103;28;20533;-41
2022/10/01 11:59:04;;;;;;;13.63;4.65;;;16.80;47.00;;;;;;5012020;28;20257;-40
2022/10/01 12:01:41;;;;;;;3.70;2.63;;;16.80;47.70;;;;;;5011716;28;20197;-41
2022/10/01 12:04:12;;;;;;;5.28;2.55;;;16.60;47.20;;;;;;5011680;28;20202;-42
2022/10/01 12:07:10;;;;;;;9.55;4.53;;;16.60;47.40;;;;;;5012692;28;20246;-41
2022/10/01 12:10:16;;;;;;;4.20;2.25;;;16.50;48.00;;;;;;5015147;28;20199;-41
2022/10/01 12:13:24;;;;;;;3.58;1.67;;;16.50;47.80;;;;;;5015182;28;20202;-41
2022/10/01 12:16:13;;;;;;;2.70;1.70;;;16.50;47.80;;;;;;4980172;28;20677;-42
2022/10/01 12:18:48;;;;;;;2.53;1.60;;;16.40;47.20;;;;;;5014920;28;20217;-42
2022/10/01 12:21:33;;;;;;;3.72;2.83;;;16.20;47.80;;;;;;5015027;28;20182;-41
2022/10/01 12:24:13;;;;;;;4.90;3.75;;;16.20;48.10;;;;;;5015358;28;20174;-41
2022/10/01 12:26:54;;;;;;;4.80;2.72;;;16.20;48.30;;;;;;5014301;28;20673;-42
2022/10/01 12:29:20;;;;;;;3.72;3.03;;;16.30;48.30;;;;;;5014938;28;20194;-41
2022/10/01 12:32:05;;;;;;;2.80;2.50;;;16.30;48.90;;;;;;5014746;28;20171;-41
2022/10/01 12:34:49;;;;;;;2.92;2.45;;;16.30;48.70;;;;;;5014849;28;20166;-42
2022/10/01 12:37:32;;;;;;;3.38;2.38;;;16.30;48.50;;;;;;5014461;28;20225;-42
2022/10/01 12:40:29;;;;;;;2.65;2.03;;;16.30;48.30;;;;;;5015013;28;20174;-41
2022/10/01 12:43:13;;;;;;;2.60;2.00;;;16.30;48.50;;;;;;5009056;28;20211;-41
2022/10/01 12:45:48;;;;;;;4.13;2.70;;;16.30;48.80;;;;;;5014105;28;20583;-41
2022/10/01 12:48:46;;;;;;;4.03;2.38;;;16.30;48.70;;;;;;5014371;28;20750;-41
2022/10/01 12:51:26;;;;;;;2.60;2.10;;;16.20;48.80;;;;;;4999010;28;20241;-41
2022/10/01 12:54:21;;;;;;;2.85;2.47;;;16.30;49.50;;;;;;5014805;28;20535;-41
2022/10/01 12:56:47;;;;;;;3.22;2.50;;;16.40;48.80;;;;;;5013742;28;20155;-42
2022/10/01 12:59:58;;;;;;;2.93;2.50;;;16.30;49.60;;;;;;5014234;28;20191;-41
2022/10/01 13:02:40;;;;;;;3.05;1.80;;;16.40;49.50;;;;;;4983641;28;20206;-41
2022/10/01 13:05:18;;;;;;;7.68;2.90;;;16.40;49.50;;;;;;5014208;28;20179;-42
2022/10/01 13:07:47;;;;;;;3.42;2.35;;;16.40;49.70;;;;;;5013327;28;20658;-41
2022/10/01 13:10:16;;;;;;;5.80;4.63;;;16.40;49.80;;;;;;5014332;28;20174;-42
2022/10/01 13:13:20;;;;;;;7.18;3.72;;;16.50;50.30;;;;;;5014204;28;20210;-42